Time;durP1;ratioP1;P1;durP2;ratioP2;P2;SDS_P1;SDS_P2;PMS_P1;PMS_P2;Temp;Humidity;BMP_temperature;BMP_pressure;BME280_temperature;BME280_humidity;BME280_pressure;Samples;Min_cycle;Max_cycle;Signal;HPM_P1;HPM_P2
2022/09/08 00:01:32;;;;;;;3.95;2.20;;;;;;;;;;5108078;27;20290;-65
2022/09/08 00:04:01;;;;;;;3.03;2.30;;;;;;;;;;5100169;27;20259;-67
2022/09/08 00:06:31;;;;;;;3.72;2.25;;;;;;;;;;5099603;27;20662;-68
2022/09/08 00:08:59;;;;;;;2.80;2.10;;;;;;;;;;5123520;27;20204;-68
2022/09/08 00:11:29;;;;;;;2.88;2.10;;;;;;;;;;5108625;27;20314;-67
2022/09/08 00:14:00;;;;;;;1.95;1.85;;;;;;;;;;5096707;27;20739;-67
2022/09/08 00:16:27;;;;;;;2.60;1.92;;;;;;;;;;5123315;27;20204;-68
2022/09/08 00:18:55;;;;;;;2.58;1.80;;;;;;;;;;5100852;27;20203;-67
2022/09/08 00:21:23;;;;;;;3.78;2.00;;;;;;;;;;5094780;27;20207;-67
2022/09/08 00:23:51;;;;;;;4.90;2.13;;;;;;;;;;5115543;27;20318;-67
2022/09/08 00:26:21;;;;;;;4.32;2.30;;;;;;;;;;5098274;27;20208;-67
2022/09/08 00:28:48;;;;;;;3.33;2.58;;;;;;;;;;5100239;27;20218;-68
2022/09/08 00:31:16;;;;;;;2.55;2.35;;;;;;;;;;5100707;27;20663;-67
2022/09/08 00:33:44;;;;;;;2.42;2.25;;;;;;;;;;5110774;27;20240;-66
2022/09/08 00:36:14;;;;;;;3.03;2.65;;;;;;;;;;5094576;27;20210;-66
2022/09/08 00:38:42;;;;;;;4.07;2.22;;;;;;;;;;5100591;27;20222;-67
2022/09/08 00:41:11;;;;;;;4.32;2.90;;;;;;;;;;5094109;27;20317;-68
2022/09/08 00:43:46;;;;;;;4.53;2.33;;;;;;;;;;5091160;27;21624;-67
2022/09/08 00:46:18;;;;;;;4.18;2.50;;;;;;;;;;5094415;28;20207;-67
2022/09/08 00:48:55;;;;;;;4.68;2.60;;;;;;;;;;5111987;27;20252;-67
2022/09/08 00:51:24;;;;;;;3.53;2.63;;;;;;;;;;5095579;28;20298;-66
2022/09/08 00:53:53;;;;;;;3.67;2.60;;;;;;;;;;5104661;27;20772;-67
2022/09/08 00:56:22;;;;;;;3.70;2.55;;;;;;;;;;5100389;27;20337;-67
2022/09/08 00:58:49;;;;;;;5.32;2.50;;;;;;;;;;5096945;27;20769;-64
2022/09/08 01:01:17;;;;;;;3.15;2.60;;;;;;;;;;5098898;27;20211;-66
2022/09/08 01:03:44;;;;;;;3.55;2.60;;;;;;;;;;5095441;27;20227;-65
2022/09/08 01:06:21;;;;;;;3.58;2.58;;;;;;;;;;5093955;27;20287;-65
2022/09/08 01:14:44;;;;;;;5.82;2.67;;;;;;;;;;5121377;27;20202;-67
2022/09/08 01:17:16;;;;;;;5.75;2.83;;;;;;;;;;5103151;27;20196;-67
2022/09/08 01:19:46;;;;;;;3.92;3.00;;;;;;;;;;5114389;27;20361;-64
2022/09/08 01:22:26;;;;;;;4.72;3.08;;;;;;;;;;5099091;27;20697;-65
2022/09/08 01:24:58;;;;;;;3.97;2.80;;;;;;;;;;5098333;27;20287;-67
2022/09/08 01:27:30;;;;;;;4.38;2.60;;;;;;;;;;5092709;27;20790;-66
2022/09/08 01:30:06;;;;;;;3.35;2.85;;;;;;;;;;5104550;27;20210;-66
2022/09/08 01:32:35;;;;;;;8.35;3.22;;;;;;;;;;5097898;27;20230;-68
2022/09/08 01:35:03;;;;;;;3.50;2.65;;;;;;;;;;5095289;27;20199;-64
2022/09/08 01:37:31;;;;;;;5.82;2.83;;;;;;;;;;5092004;27;22287;-68
2022/09/08 01:39:58;;;;;;;3.17;2.70;;;;;;;;;;5092993;27;20276;-67
2022/09/08 01:42:26;;;;;;;3.20;2.90;;;;;;;;;;5114593;27;20227;-68
2022/09/08 01:44:53;;;;;;;4.32;2.70;;;;;;;;;;5091659;27;20208;-66
2022/09/08 01:47:20;;;;;;;6.25;2.42;;;;;;;;;;5097499;28;20756;-68
2022/09/08 01:49:48;;;;;;;3.78;2.70;;;;;;;;;;5107882;27;20218;-67
2022/09/08 01:52:15;;;;;;;3.85;2.28;;;;;;;;;;5126035;28;20211;-68
2022/09/08 01:54:42;;;;;;;2.33;2.22;;;;;;;;;;5104327;28;20352;-68
2022/09/08 01:57:10;;;;;;;4.40;2.53;;;;;;;;;;5101399;28;20576;-66
2022/09/08 01:59:37;;;;;;;2.97;2.20;;;;;;;;;;5093087;28;20671;-67
2022/09/08 02:02:05;;;;;;;4.15;2.58;;;;;;;;;;5108634;27;20204;-66
2022/09/08 02:04:33;;;;;;;3.85;2.40;;;;;;;;;;5097471;27;20737;-65
2022/09/08 02:07:00;;;;;;;6.45;2.33;;;;;;;;;;5095127;27;22130;-67
2022/09/08 02:09:27;;;;;;;4.40;2.40;;;;;;;;;;5094709;27;20260;-66
2022/09/08 02:11:55;;;;;;;5.18;2.28;;;;;;;;;;5098600;27;20261;-65
2022/09/08 02:14:22;;;;;;;2.72;2.53;;;;;;;;;;5091476;27;20729;-66
2022/09/08 02:16:49;;;;;;;3.13;2.42;;;;;;;;;;5094053;27;20567;-68
2022/09/08 02:19:17;;;;;;;2.70;2.28;;;;;;;;;;5112411;27;20292;-66
2022/09/08 02:21:44;;;;;;;2.03;1.92;;;;;;;;;;5119788;27;20210;-66
2022/09/08 02:24:11;;;;;;;2.47;2.15;;;;;;;;;;5113922;28;20251;-65
2022/09/08 02:26:40;;;;;;;3.40;2.40;;;;;;;;;;5103313;28;20208;-66
2022/09/08 02:29:10;;;;;;;2.60;2.40;;;;;;;;;;5100328;27;20231;-65
2022/09/08 02:31:37;;;;;;;2.50;1.90;;;;;;;;;;5110113;27;20322;-65
2022/09/08 02:34:05;;;;;;;2.13;2.00;;;;;;;;;;5103045;28;20304;-63
2022/09/08 02:36:32;;;;;;;1.90;1.80;;;;;;;;;;5098551;27;20195;-64
2022/09/08 02:39:00;;;;;;;3.67;1.60;;;;;;;;;;5097793;28;20218;-66
2022/09/08 02:41:28;;;;;;;4.80;2.00;;;;;;;;;;5089911;27;20307;-65
2022/09/08 02:43:56;;;;;;;3.70;1.92;;;;;;;;;;5099448;28;20215;-64
2022/09/08 02:46:24;;;;;;;1.95;1.80;;;;;;;;;;5053749;27;1205808;-65
2022/09/08 02:48:52;;;;;;;2.08;1.70;;;;;;;;;;5105986;27;20245;-64
2022/09/08 02:51:20;;;;;;;1.77;1.48;;;;;;;;;;5088649;27;20203;-65
2022/09/08 02:53:47;;;;;;;2.50;1.60;;;;;;;;;;5092431;27;20223;-64
2022/09/08 02:56:15;;;;;;;2.30;1.73;;;;;;;;;;5099572;27;20196;-64
2022/09/08 02:58:42;;;;;;;3.20;1.80;;;;;;;;;;5097983;27;23493;-64
2022/09/08 03:01:10;;;;;;;2.63;1.70;;;;;;;;;;5098302;27;20662;-64
2022/09/08 03:03:37;;;;;;;2.38;1.75;;;;;;;;;;5081181;27;20232;-64
2022/09/08 03:06:05;;;;;;;2.58;1.60;;;;;;;;;;5107919;27;20207;-64
2022/09/08 03:08:33;;;;;;;1.27;1.17;;;;;;;;;;5093381;27;20231;-64
2022/09/08 03:11:01;;;;;;;2.38;1.60;;;;;;;;;;5097959;27;20208;-65
2022/09/08 03:13:28;;;;;;;2.83;1.52;;;;;;;;;;5091291;27;20223;-65
2022/09/08 03:15:56;;;;;;;2.17;1.60;;;;;;;;;;5093397;27;21597;-64
2022/09/08 03:18:24;;;;;;;3.45;1.67;;;;;;;;;;5091853;27;20572;-64
2022/09/08 03:21:01;;;;;;;2.20;1.70;;;;;;;;;;5100962;27;20265;-64
2022/09/08 03:23:31;;;;;;;1.58;1.50;;;;;;;;;;5098856;27;20227;-63
2022/09/08 03:26:17;;;;;;;1.73;1.50;;;;;;;;;;5094371;27;20242;-65
2022/09/08 03:28:51;;;;;;;1.50;1.40;;;;;;;;;;5088327;27;20253;-65
2022/09/08 03:31:20;;;;;;;1.55;1.45;;;;;;;;;;5097040;27;20208;-65
2022/09/08 03:33:48;;;;;;;2.55;1.80;;;;;;;;;;5096951;27;20869;-65
2022/09/08 03:36:16;;;;;;;3.42;1.42;;;;;;;;;;5098481;27;20226;-64
2022/09/08 03:38:45;;;;;;;1.67;1.58;;;;;;;;;;5125148;27;20200;-65
2022/09/08 03:41:14;;;;;;;2.03;1.88;;;;;;;;;;5096779;27;20200;-65
2022/09/08 03:43:46;;;;;;;1.92;1.45;;;;;;;;;;5094799;27;20315;-65
2022/09/08 03:46:14;;;;;;;1.92;1.70;;;;;;;;;;5082588;27;20215;-63
2022/09/08 03:48:42;;;;;;;3.58;1.40;;;;;;;;;;5103606;27;20204;-65
2022/09/08 03:51:13;;;;;;;1.88;1.48;;;;;;;;;;5092412;27;20650;-65
2022/09/08 03:53:40;;;;;;;1.52;1.30;;;;;;;;;;5091748;27;20237;-65
2022/09/08 03:56:08;;;;;;;1.83;1.50;;;;;;;;;;5094129;27;20294;-64
2022/09/08 03:58:36;;;;;;;2.67;1.30;;;;;;;;;;5100716;27;21837;-65
2022/09/08 04:01:11;;;;;;;1.73;1.45;;;;;;;;;;5094179;27;20196;-65
2022/09/08 04:03:39;;;;;;;1.50;1.40;;;;;;;;;;5102020;27;20233;-65
2022/09/08 04:06:11;;;;;;;1.40;1.25;;;;;;;;;;5105273;27;20225;-66
2022/09/08 04:08:39;;;;;;;1.50;1.40;;;;;;;;;;5106294;27;20348;-65
2022/09/08 04:11:07;;;;;;;1.40;1.30;;;;;;;;;;5107118;27;20206;-64
2022/09/08 04:13:34;;;;;;;2.60;1.17;;;;;;;;;;5117198;27;20254;-64
2022/09/08 04:16:03;;;;;;;1.30;1.20;;;;;;;;;;5090301;27;20709;-64
2022/09/08 04:18:32;;;;;;;1.23;1.20;;;;;;;;;;5105852;27;20230;-65
2022/09/08 04:21:01;;;;;;;1.08;1.08;;;;;;;;;;5099859;27;20290;-65
2022/09/08 04:23:29;;;;;;;1.83;1.30;;;;;;;;;;5106140;27;20231;-64
2022/09/08 04:26:01;;;;;;;1.60;1.50;;;;;;;;;;5097049;28;20649;-65
2022/09/08 04:28:29;;;;;;;1.63;1.17;;;;;;;;;;5099841;27;20215;-63
2022/09/08 04:31:18;;;;;;;1.20;1.20;;;;;;;;;;5102570;27;20208;-65
2022/09/08 04:33:48;;;;;;;1.85;1.45;;;;;;;;;;5095563;27;20712;-66
2022/09/08 04:36:20;;;;;;;1.45;1.33;;;;;;;;;;5110042;27;20291;-65
2022/09/08 04:38:58;;;;;;;1.40;1.30;;;;;;;;;;5098238;28;20235;-66
2022/09/08 04:41:26;;;;;;;3.08;1.30;;;;;;;;;;5102530;27;20203;-66
2022/09/08 04:43:54;;;;;;;1.60;1.50;;;;;;;;;;5103473;28;20230;-65
2022/09/08 04:46:21;;;;;;;1.52;1.20;;;;;;;;;;5097544;28;20360;-65
2022/09/08 04:48:49;;;;;;;1.48;1.38;;;;;;;;;;5097822;28;20232;-65
2022/09/08 04:51:18;;;;;;;1.65;1.30;;;;;;;;;;5099757;28;20195;-65
2022/09/08 04:53:46;;;;;;;1.25;1.15;;;;;;;;;;5099093;28;21149;-65
2022/09/08 04:56:13;;;;;;;1.55;1.00;;;;;;;;;;5099867;28;20227;-63
2022/09/08 04:58:42;;;;;;;2.15;1.25;;;;;;;;;;5107773;27;20233;-63
2022/09/08 05:01:11;;;;;;;1.40;1.30;;;;;;;;;;5110840;28;20226;-65
2022/09/08 05:03:38;;;;;;;2.38;1.13;;;;;;;;;;5104782;28;20274;-65
2022/09/08 05:06:07;;;;;;;2.00;1.33;;;;;;;;;;5102995;28;20566;-65
2022/09/08 05:08:34;;;;;;;1.17;0.93;;;;;;;;;;5098742;28;20287;-65
2022/09/08 05:11:02;;;;;;;2.85;1.30;;;;;;;;;;5112921;27;20212;-65
2022/09/08 05:13:29;;;;;;;1.48;1.30;;;;;;;;;;5100830;28;20903;-65
2022/09/08 05:16:11;;;;;;;1.20;1.20;;;;;;;;;;5103450;28;20300;-64
2022/09/08 05:18:38;;;;;;;2.40;1.40;;;;;;;;;;5101393;28;20543;-66
2022/09/08 05:21:07;;;;;;;1.83;1.20;;;;;;;;;;5099817;28;20195;-66
2022/09/08 05:23:35;;;;;;;1.38;1.27;;;;;;;;;;5104561;28;20219;-65
2022/09/08 05:26:06;;;;;;;2.55;1.30;;;;;;;;;;5100746;28;20295;-65
2022/09/08 05:28:35;;;;;;;1.25;1.15;;;;;;;;;;5103947;28;20283;-65
2022/09/08 05:31:09;;;;;;;1.88;1.10;;;;;;;;;;5108196;28;20640;-64
2022/09/08 05:33:36;;;;;;;1.70;1.20;;;;;;;;;;5105194;28;20245;-64
2022/09/08 05:36:09;;;;;;;1.30;1.05;;;;;;;;;;5097972;28;20206;-63
2022/09/08 05:38:36;;;;;;;1.35;1.20;;;;;;;;;;5103204;28;20278;-66
2022/09/08 05:41:04;;;;;;;2.47;1.05;;;;;;;;;;5093931;27;20603;-66
2022/09/08 05:43:31;;;;;;;2.72;1.00;;;;;;;;;;5106784;27;20318;-66
2022/09/08 05:45:59;;;;;;;1.08;1.02;;;;;;;;;;5107358;27;20291;-65
2022/09/08 05:48:27;;;;;;;1.30;1.00;;;;;;;;;;5104353;27;20294;-65
2022/09/08 05:50:55;;;;;;;0.98;0.98;;;;;;;;;;5109136;27;20291;-64
2022/09/08 05:53:22;;;;;;;1.20;1.10;;;;;;;;;;5094805;27;20611;-65
2022/09/08 05:55:57;;;;;;;0.85;0.85;;;;;;;;;;5094415;27;20195;-65
2022/09/08 05:58:24;;;;;;;1.52;1.00;;;;;;;;;;5100100;27;20201;-66
2022/09/08 06:00:56;;;;;;;0.98;0.90;;;;;;;;;;5116382;27;20653;-65
2022/09/08 06:03:24;;;;;;;0.90;0.90;;;;;;;;;;5088117;27;20231;-65
2022/09/08 06:05:52;;;;;;;1.60;1.00;;;;;;;;;;5110342;27;20693;-66
2022/09/08 06:08:21;;;;;;;1.17;1.10;;;;;;;;;;5095354;27;20709;-65
2022/09/08 06:10:49;;;;;;;1.02;0.93;;;;;;;;;;5096249;27;20196;-65
2022/09/08 06:13:16;;;;;;;2.88;0.95;;;;;;;;;;5088629;27;20645;-65
2022/09/08 06:15:44;;;;;;;1.00;1.00;;;;;;;;;;5094120;27;20198;-66
2022/09/08 06:18:12;;;;;;;1.23;0.90;;;;;;;;;;5095417;27;20298;-65
2022/09/08 06:20:39;;;;;;;1.52;0.90;;;;;;;;;;5115641;27;20200;-65
2022/09/08 06:23:07;;;;;;;2.80;1.00;;;;;;;;;;5106192;27;20219;-65
2022/09/08 06:25:38;;;;;;;1.35;0.90;;;;;;;;;;5090265;27;20583;-65
2022/09/08 06:28:18;;;;;;;1.00;0.85;;;;;;;;;;5109873;27;20294;-65
2022/09/08 06:30:50;;;;;;;1.10;0.90;;;;;;;;;;5092937;27;20212;-65
2022/09/08 06:33:37;;;;;;;0.90;0.90;;;;;;;;;;5095422;27;20235;-65
2022/09/08 06:36:21;;;;;;;0.90;0.90;;;;;;;;;;5099056;27;20203;-65
2022/09/08 06:39:01;;;;;;;2.83;0.90;;;;;;;;;;5115935;27;20199;-64
2022/09/08 06:41:33;;;;;;;1.20;1.20;;;;;;;;;;5103123;27;20287;-65
2022/09/08 06:44:05;;;;;;;0.82;0.82;;;;;;;;;;5117499;27;20224;-65
2022/09/08 06:46:38;;;;;;;2.28;0.90;;;;;;;;;;5094958;27;20208;-65
2022/09/08 06:49:05;;;;;;;1.48;0.88;;;;;;;;;;5114701;27;20675;-65
2022/09/08 06:51:33;;;;;;;2.90;0.95;;;;;;;;;;5091973;27;20203;-65
2022/09/08 06:54:01;;;;;;;0.80;0.80;;;;;;;;;;5097874;27;20775;-65
2022/09/08 06:56:33;;;;;;;0.73;0.68;;;;;;;;;;5099205;27;20208;-64
2022/09/08 06:59:26;;;;;;;0.77;0.75;;;;;;;;;;5088243;27;20828;-63
2022/09/08 07:02:14;;;;;;;1.02;0.93;;;;;;;;;;5090453;27;20232;-65
2022/09/08 07:04:47;;;;;;;1.33;0.90;;;;;;;;;;5076021;27;20215;-66
2022/09/08 07:07:41;;;;;;;0.77;0.77;;;;;;;;;;5095070;27;20207;-66
2022/09/08 07:10:29;;;;;;;2.80;1.02;;;;;;;;;;5091149;27;20288;-65
2022/09/08 07:13:11;;;;;;;2.47;1.10;;;;;;;;;;5092264;27;20272;-65
2022/09/08 07:15:47;;;;;;;0.80;0.80;;;;;;;;;;5096861;27;20199;-65
2022/09/08 07:18:28;;;;;;;1.02;0.93;;;;;;;;;;5094057;27;20290;-65
2022/09/08 07:21:07;;;;;;;0.80;0.80;;;;;;;;;;5095163;27;20218;-64
2022/09/08 07:23:36;;;;;;;1.38;1.20;;;;;;;;;;5110641;27;20227;-65
2022/09/08 07:26:08;;;;;;;1.65;1.13;;;;;;;;;;5095037;27;20253;-65
2022/09/08 07:28:41;;;;;;;1.13;0.90;;;;;;;;;;5080626;27;20317;-65
2022/09/08 07:31:19;;;;;;;1.23;1.13;;;;;;;;;;5068668;27;20208;-67
2022/09/08 07:33:53;;;;;;;1.17;1.10;;;;;;;;;;5073425;27;20249;-65
2022/09/08 07:36:40;;;;;;;2.10;1.00;;;;;;;;;;5073066;27;20218;-64
2022/09/08 07:39:16;;;;;;;1.17;1.10;;;;;;;;;;5078574;27;20218;-64
2022/09/08 07:41:45;;;;;;;0.98;0.98;;;;;;;;;;5092382;27;20210;-65
2022/09/08 07:44:14;;;;;;;1.17;1.15;;;;;;;;;;5086244;27;20314;-64
2022/09/08 07:46:45;;;;;;;1.30;1.20;;;;;;;;;;5089618;27;20315;-65
2022/09/08 07:49:20;;;;;;;1.23;1.13;;;;;;;;;;5092378;27;20218;-63
2022/09/08 07:51:58;;;;;;;2.15;1.20;;;;;;;;;;5104335;27;20650;-66
2022/09/08 07:54:25;;;;;;;1.00;1.00;;;;;;;;;;5083321;27;20293;-65
2022/09/08 07:57:21;;;;;;;1.60;1.10;;;;;;;;;;5083673;27;20204;-64
2022/09/08 08:00:10;;;;;;;1.17;1.17;;;;;;;;;;5084273;27;20215;-63
2022/09/08 08:02:44;;;;;;;2.25;1.20;;;;;;;;;;5074690;27;20672;-64
2022/09/08 08:05:21;;;;;;;3.35;1.27;;;;;;;;;;5118522;27;20673;-65
2022/09/08 08:07:55;;;;;;;1.15;1.05;;;;;;;;;;5100411;27;20657;-66
2022/09/08 08:10:37;;;;;;;1.88;1.15;;;;;;;;;;5097212;27;20203;-66
2022/09/08 08:13:20;;;;;;;1.60;1.27;;;;;;;;;;5107170;27;20244;-64
2022/09/08 08:15:52;;;;;;;1.33;1.20;;;;;;;;;;5110933;28;20272;-66
2022/09/08 08:18:20;;;;;;;1.02;1.02;;;;;;;;;;5101947;27;20201;-65
2022/09/08 08:21:04;;;;;;;1.25;1.25;;;;;;;;;;5103906;27;20233;-66
2022/09/08 08:23:52;;;;;;;1.10;1.10;;;;;;;;;;5108162;27;20229;-66
2022/09/08 08:26:38;;;;;;;1.63;1.30;;;;;;;;;;5071567;27;20211;-65
2022/09/08 08:29:27;;;;;;;1.25;1.15;;;;;;;;;;5093889;27;20208;-65
2022/09/08 08:32:11;;;;;;;2.22;1.40;;;;;;;;;;5106570;27;20232;-66
2022/09/08 08:35:00;;;;;;;1.23;1.23;;;;;;;;;;5100975;27;20254;-63
2022/09/08 08:37:31;;;;;;;1.10;1.02;;;;;;;;;;5075719;27;20222;-65
2022/09/08 08:40:00;;;;;;;3.67;1.40;;;;;;;;;;5091082;27;20261;-66
2022/09/08 08:42:50;;;;;;;1.40;1.30;;;;;;;;;;5094625;28;20810;-64
2022/09/08 08:45:19;;;;;;;2.33;1.15;;;;;;;;;;5077367;28;20310;-65
2022/09/08 08:48:15;;;;;;;2.03;1.35;;;;;;;;;;5091772;28;20294;-66
2022/09/08 08:50:56;;;;;;;2.58;1.17;;;;;;;;;;5097282;28;20232;-66
2022/09/08 08:53:37;;;;;;;1.95;1.30;;;;;;;;;;5082575;27;20227;-63
2022/09/08 08:56:30;;;;;;;2.45;1.23;;;;;;;;;;5107258;27;20276;-65
2022/09/08 08:59:06;;;;;;;1.83;1.00;;;;;;;;;;5091270;27;20218;-66
2022/09/08 09:01:37;;;;;;;2.90;1.35;;;;;;;;;;5093378;28;20209;-64
2022/09/08 09:04:23;;;;;;;1.20;1.17;;;;;;;;;;5090822;27;20249;-63
2022/09/08 09:06:57;;;;;;;1.27;1.13;;;;;;;;;;5106526;27;20220;-65
2022/09/08 09:09:37;;;;;;;1.65;1.30;;;;;;;;;;5104926;27;21022;-65
2022/09/08 09:12:14;;;;;;;2.03;1.25;;;;;;;;;;5099807;28;20203;-66
2022/09/08 09:14:47;;;;;;;1.35;1.05;;;;;;;;;;5091110;27;20251;-65
2022/09/08 09:17:44;;;;;;;1.45;1.20;;;;;;;;;;5108149;27;20225;-63
2022/09/08 09:20:20;;;;;;;1.80;1.00;;;;;;;;;;5103538;27;20210;-67
2022/09/08 09:23:16;;;;;;;1.25;1.10;;;;;;;;;;5117628;27;20700;-68
2022/09/08 09:25:52;;;;;;;1.35;1.00;;;;;;;;;;5023054;27;20210;-66
2022/09/08 09:28:20;;;;;;;3.60;1.17;;;;;;;;;;5091052;27;20199;-66
2022/09/08 09:31:03;;;;;;;2.75;1.23;;;;;;;;;;5090524;27;20643;-67
2022/09/08 09:33:33;;;;;;;4.70;1.20;;;;;;;;;;5085150;27;20752;-66
2022/09/08 09:36:14;;;;;;;1.55;1.00;;;;;;;;;;5093759;27;20200;-65
2022/09/08 09:38:49;;;;;;;3.33;1.38;;;;;;;;;;5100007;27;20327;-65
2022/09/08 09:41:42;;;;;;;1.48;1.38;;;;;;;;;;5089008;27;20206;-65
2022/09/08 09:44:18;;;;;;;1.88;1.27;;;;;;;;;;5087934;27;20692;-67
2022/09/08 09:47:04;;;;;;;1.48;1.10;;;;;;;;;;5111726;27;20822;-66
2022/09/08 09:49:37;;;;;;;1.30;1.20;;;;;;;;;;5106482;27;20822;-67
2022/09/08 09:52:16;;;;;;;3.25;1.00;;;;;;;;;;5094410;27;20200;-67
2022/09/08 09:54:59;;;;;;;2.33;1.00;;;;;;;;;;5091876;27;20775;-67
2022/09/08 09:57:46;;;;;;;1.10;1.10;;;;;;;;;;5096365;27;20875;-66
2022/09/08 10:00:28;;;;;;;2.13;1.13;;;;;;;;;;5078498;27;20599;-66
2022/09/08 10:03:14;;;;;;;3.22;1.13;;;;;;;;;;5095656;27;20216;-66
2022/09/08 10:05:44;;;;;;;1.30;1.20;;;;;;;;;;5100433;27;20191;-65
2022/09/08 10:08:24;;;;;;;1.77;1.10;;;;;;;;;;5107055;27;20210;-66
2022/09/08 10:10:51;;;;;;;2.15;1.00;;;;;;;;;;5112600;27;20291;-66
2022/09/08 10:13:38;;;;;;;1.25;1.10;;;;;;;;;;5093260;27;20223;-67
2022/09/08 10:16:26;;;;;;;1.27;1.20;;;;;;;;;;5084039;27;20200;-65
2022/09/08 10:18:53;;;;;;;6.07;1.10;;;;;;;;;;5082774;27;20232;-67
2022/09/08 10:21:39;;;;;;;1.10;0.90;;;;;;;;;;5100307;27;20724;-66
2022/09/08 10:24:10;;;;;;;2.28;1.13;;;;;;;;;;5089827;27;20230;-68
2022/09/08 10:26:44;;;;;;;1.67;0.90;;;;;;;;;;5084387;27;22964;-67
2022/09/08 10:29:26;;;;;;;2.67;1.08;;;;;;;;;;5099465;27;20210;-66
2022/09/08 10:32:09;;;;;;;1.35;0.80;;;;;;;;;;5101577;27;20620;-67
2022/09/08 10:34:56;;;;;;;1.67;0.80;;;;;;;;;;5086137;27;20227;-64
2022/09/08 10:37:36;;;;;;;0.95;0.90;;;;;;;;;;5080426;27;20318;-65
2022/09/08 10:40:10;;;;;;;0.95;0.80;;;;;;;;;;5104809;27;20207;-66
2022/09/08 10:42:45;;;;;;;2.28;0.80;;;;;;;;;;5086491;27;20591;-65
2022/09/08 10:45:19;;;;;;;1.63;0.80;;;;;;;;;;5088092;27;21615;-67
2022/09/08 10:47:46;;;;;;;1.63;0.73;;;;;;;;;;5079037;27;20215;-68
2022/09/08 10:50:23;;;;;;;1.88;1.05;;;;;;;;;;5080850;27;20986;-68
2022/09/08 10:53:10;;;;;;;1.88;0.75;;;;;;;;;;5082205;27;20307;-67
2022/09/08 10:55:44;;;;;;;2.25;0.80;;;;;;;;;;5089079;27;20227;-65
2022/09/08 10:58:27;;;;;;;3.65;0.80;;;;;;;;;;5091821;27;20285;-67
2022/09/08 11:00:54;;;;;;;0.85;0.70;;;;;;;;;;5074042;27;20324;-68
2022/09/08 11:03:28;;;;;;;1.45;1.02;;;;;;;;;;5087930;27;20232;-65
2022/09/08 11:05:59;;;;;;;0.73;0.73;;;;;;;;;;5090374;27;20303;-65
2022/09/08 11:08:56;;;;;;;2.40;0.90;;;;;;;;;;5099331;27;20284;-65
2022/09/08 11:11:44;;;;;;;0.90;0.90;;;;;;;;;;5008198;27;20202;-66
2022/09/08 11:14:31;;;;;;;0.73;0.70;;;;;;;;;;5088015;27;20284;-66
2022/09/08 11:17:15;;;;;;;1.65;0.90;;;;;;;;;;5096431;27;20204;-66
2022/09/08 11:19:46;;;;;;;1.17;1.08;;;;;;;;;;5069720;27;20196;-66
2022/09/08 11:22:16;;;;;;;1.02;1.00;;;;;;;;;;5069679;27;20223;-65
2022/09/08 11:24:49;;;;;;;2.28;0.80;;;;;;;;;;5088759;27;20227;-65
2022/09/08 11:27:32;;;;;;;1.52;0.95;;;;;;;;;;5079862;27;20200;-65
2022/09/08 11:30:03;;;;;;;1.50;0.93;;;;;;;;;;5117860;27;20210;-65
2022/09/08 11:32:37;;;;;;;0.88;0.70;;;;;;;;;;5097133;27;20306;-66
2022/09/08 11:35:13;;;;;;;4.15;0.85;;;;;;;;;;5097678;27;20238;-66
2022/09/08 11:37:54;;;;;;;1.13;0.80;;;;;;;;;;5103281;27;20770;-66
2022/09/08 11:40:29;;;;;;;2.92;0.60;;;;;;;;;;5106404;27;20251;-66
2022/09/08 11:42:57;;;;;;;1.80;0.60;;;;;;;;;;5128946;27;20258;-66
2022/09/08 11:45:24;;;;;;;1.40;0.75;;;;;;;;;;5113285;27;20192;-65
2022/09/08 11:48:01;;;;;;;0.60;0.60;;;;;;;;;;5092287;27;20214;-65
2022/09/08 11:50:34;;;;;;;1.20;0.70;;;;;;;;;;5101204;27;20278;-65
2022/09/08 11:53:33;;;;;;;3.70;0.60;;;;;;;;;;5110271;27;20883;-66
2022/09/08 11:56:50;;;;;;;1.27;0.70;;;;;;;;;;5103133;27;20229;-66
2022/09/08 11:59:35;;;;;;;1.17;0.60;;;;;;;;;;5101133;27;20294;-65
2022/09/08 12:02:12;;;;;;;1.05;0.70;;;;;;;;;;5115800;27;20209;-66
2022/09/08 12:04:46;;;;;;;1.60;0.80;;;;;;;;;;5096160;27;20222;-65
2022/09/08 12:07:39;;;;;;;0.60;0.60;;;;;;;;;;5085674;27;20744;-67
2022/09/08 12:10:10;;;;;;;2.17;0.80;;;;;;;;;;5087928;27;20805;-66
2022/09/08 12:12:47;;;;;;;2.22;0.75;;;;;;;;;;5095173;27;22044;-65
2022/09/08 12:15:19;;;;;;;1.15;0.60;;;;;;;;;;5103665;27;20234;-67
2022/09/08 12:17:56;;;;;;;1.13;0.70;;;;;;;;;;5095662;27;20344;-66
2022/09/08 12:20:40;;;;;;;2.25;0.90;;;;;;;;;;5096221;27;20204;-66
2022/09/08 12:23:22;;;;;;;0.70;0.70;;;;;;;;;;5105142;27;20349;-67
2022/09/08 12:25:55;;;;;;;1.02;0.93;;;;;;;;;;5101492;27;20291;-65
2022/09/08 12:28:43;;;;;;;0.60;0.60;;;;;;;;;;5102940;27;20290;-66
2022/09/08 12:31:20;;;;;;;6.95;6.18;;;;;;;;;;5110362;28;20270;-67
2022/09/08 12:34:03;;;;;;;0.77;0.70;;;;;;;;;;5120951;27;20293;-66
2022/09/08 12:36:33;;;;;;;0.93;0.70;;;;;;;;;;5110280;27;20761;-66
2022/09/08 12:39:08;;;;;;;1.33;0.60;;;;;;;;;;5104657;27;20237;-65
2022/09/08 12:41:55;;;;;;;1.55;0.85;;;;;;;;;;5116033;27;20197;-67
2022/09/08 12:44:32;;;;;;;2.05;0.70;;;;;;;;;;5098844;28;20296;-65
2022/09/08 12:47:09;;;;;;;0.65;0.60;;;;;;;;;;5090312;28;20203;-66
2022/09/08 12:49:52;;;;;;;1.20;0.40;;;;;;;;;;5098493;27;20644;-66
2022/09/08 12:52:34;;;;;;;0.63;0.63;;;;;;;;;;5103519;27;20212;-67
2022/09/08 12:55:25;;;;;;;1.27;0.75;;;;;;;;;;5093865;27;20374;-64
2022/09/08 12:57:56;;;;;;;1.13;0.70;;;;;;;;;;5088625;27;20199;-66
2022/09/08 13:00:28;;;;;;;1.95;0.75;;;;;;;;;;5095010;27;20188;-65
2022/09/08 13:03:15;;;;;;;1.05;0.60;;;;;;;;;;5096460;27;20233;-66
2022/09/08 13:06:01;;;;;;;2.58;0.85;;;;;;;;;;5098032;27;20571;-66
2022/09/08 13:08:44;;;;;;;1.55;0.60;;;;;;;;;;5097354;27;20615;-66
2022/09/08 13:11:12;;;;;;;2.30;0.60;;;;;;;;;;5102109;27;20203;-65
2022/09/08 13:13:48;;;;;;;1.05;0.60;;;;;;;;;;5109226;27;20234;-66
2022/09/08 13:16:15;;;;;;;1.35;0.70;;;;;;;;;;5120942;27;20227;-66
2022/09/08 13:18:54;;;;;;;1.60;0.57;;;;;;;;;;5097972;27;20208;-66
2022/09/08 13:21:31;;;;;;;1.52;0.70;;;;;;;;;;5101125;27;20524;-65
2022/09/08 13:23:58;;;;;;;1.80;0.52;;;;;;;;;;5102795;27;20259;-65
2022/09/08 13:26:35;;;;;;;1.67;0.57;;;;;;;;;;5104545;27;20290;-65
2022/09/08 13:29:03;;;;;;;0.98;0.70;;;;;;;;;;5094791;27;20299;-66
2022/09/08 13:32:09;;;;;;;1.90;0.63;;;;;;;;;;5098260;27;20204;-65
2022/09/08 13:34:55;;;;;;;1.67;0.65;;;;;;;;;;5094076;27;20452;-65
2022/09/08 13:37:22;;;;;;;3.30;1.05;;;;;;;;;;5097345;27;20204;-64
2022/09/08 13:39:50;;;;;;;0.43;0.40;;;;;;;;;;5079470;27;20272;-65
2022/09/08 13:42:29;;;;;;;2.08;0.65;;;;;;;;;;5089341;27;20211;-66
2022/09/08 13:45:02;;;;;;;1.90;0.65;;;;;;;;;;5091841;27;20680;-65
2022/09/08 13:47:30;;;;;;;2.35;0.77;;;;;;;;;;5099445;27;20294;-64
2022/09/08 13:49:57;;;;;;;0.80;0.60;;;;;;;;;;5096440;27;22024;-66
2022/09/08 13:52:40;;;;;;;2.22;0.70;;;;;;;;;;5093278;27;20659;-66
2022/09/08 13:55:11;;;;;;;2.70;0.68;;;;;;;;;;5103925;27;20237;-66
2022/09/08 13:58:08;;;;;;;1.83;0.52;;;;;;;;;;5116964;27;23503;-66
2022/09/08 14:00:55;;;;;;;1.95;0.57;;;;;;;;;;5044834;27;20748;-66
2022/09/08 14:03:24;;;;;;;2.42;0.55;;;;;;;;;;5103237;27;20242;-66
2022/09/08 14:05:52;;;;;;;1.58;0.43;;;;;;;;;;5106952;27;20207;-66
2022/09/08 14:08:25;;;;;;;0.90;0.50;;;;;;;;;;5092162;27;20758;-65
2022/09/08 14:10:53;;;;;;;1.40;0.50;;;;;;;;;;5095639;27;20296;-66
2022/09/08 14:13:34;;;;;;;2.65;0.60;;;;;;;;;;5087905;27;20350;-65
2022/09/08 14:16:20;;;;;;;0.65;0.50;;;;;;;;;;5094350;27;20224;-66
2022/09/08 14:19:06;;;;;;;1.38;0.80;;;;;;;;;;5100971;27;21893;-64
2022/09/08 14:21:40;;;;;;;1.05;0.50;;;;;;;;;;5089730;27;20294;-67
2022/09/08 14:24:10;;;;;;;2.30;0.70;;;;;;;;;;5103034;27;20227;-65
2022/09/08 14:26:44;;;;;;;2.20;0.68;;;;;;;;;;5094745;27;20294;-65
2022/09/08 14:29:11;;;;;;;0.60;0.60;;;;;;;;;;5088359;27;20218;-65
2022/09/08 14:31:42;;;;;;;2.40;0.82;;;;;;;;;;5098438;27;20725;-66
2022/09/08 14:34:29;;;;;;;2.35;0.60;;;;;;;;;;5085246;27;20302;-66
2022/09/08 14:37:01;;;;;;;1.38;0.55;;;;;;;;;;5090835;27;20219;-65
2022/09/08 14:39:51;;;;;;;1.67;0.60;;;;;;;;;;5090655;27;20211;-64
2022/09/08 14:42:21;;;;;;;0.63;0.47;;;;;;;;;;5085025;27;20214;-65
2022/09/08 14:44:53;;;;;;;1.55;0.75;;;;;;;;;;5110549;27;20204;-65
2022/09/08 14:47:31;;;;;;;1.45;0.70;;;;;;;;;;5094889;27;20314;-65
2022/09/08 14:50:18;;;;;;;1.10;0.70;;;;;;;;;;5100901;27;20758;-65
2022/09/08 14:52:53;;;;;;;1.77;0.60;;;;;;;;;;5116614;27;20215;-64
2022/09/08 14:55:26;;;;;;;0.77;0.50;;;;;;;;;;5099840;27;20680;-65
2022/09/08 14:57:55;;;;;;;1.30;0.70;;;;;;;;;;5096198;27;20210;-65
2022/09/08 15:00:24;;;;;;;2.05;1.00;;;;;;;;;;5099902;27;20200;-65
2022/09/08 15:02:52;;;;;;;2.38;0.80;;;;;;;;;;5100049;27;20318;-65
2022/09/08 15:05:22;;;;;;;0.98;0.65;;;;;;;;;;5090644;27;20212;-64
2022/09/08 15:07:57;;;;;;;1.38;0.80;;;;;;;;;;5080074;27;20196;-65
2022/09/08 15:10:34;;;;;;;0.77;0.40;;;;;;;;;;5098723;27;20246;-64
2022/09/08 15:13:08;;;;;;;0.63;0.50;;;;;;;;;;5103082;27;20219;-64
2022/09/08 15:15:39;;;;;;;1.80;0.80;;;;;;;;;;5103704;27;20227;-65
2022/09/08 15:18:19;;;;;;;1.52;0.60;;;;;;;;;;5103604;27;20204;-65
2022/09/08 15:21:08;;;;;;;2.83;0.75;;;;;;;;;;5097776;27;20290;-65
2022/09/08 15:23:38;;;;;;;1.55;0.70;;;;;;;;;;5098179;27;20577;-64
2022/09/08 15:26:10;;;;;;;2.40;0.60;;;;;;;;;;5094794;27;20657;-64
2022/09/08 15:28:46;;;;;;;3.88;0.90;;;;;;;;;;5088871;27;20218;-66
2022/09/08 15:31:27;;;;;;;2.13;0.75;;;;;;;;;;5096852;27;20283;-65